createdAt,value
2017-12-03T01:00:22.647Z,2.45
2017-12-03T01:02:50.718Z,2.12
2017-12-03T01:05:18.782Z,2.20
2017-12-03T01:07:46.874Z,2.14
2017-12-03T01:10:14.940Z,1.88
2017-12-03T01:12:43.006Z,1.58
2017-12-03T01:15:11.064Z,1.25
2017-12-03T01:17:39.140Z,1.27
2017-12-03T01:20:07.231Z,1.22
2017-12-03T01:22:35.294Z,1.14
2017-12-03T01:25:03.362Z,1.03
2017-12-03T01:27:31.434Z,0.87
2017-12-03T01:29:59.501Z,0.56
2017-12-03T01:32:27.595Z,0.90
2017-12-03T01:37:55.219Z,1.30
2017-12-03T01:40:23.290Z,1.25
2017-12-03T01:42:51.350Z,1.62
2017-12-03T01:45:19.419Z,1.70
2017-12-03T01:47:47.491Z,1.48
2017-12-03T01:50:15.556Z,1.67
2017-12-03T01:52:43.627Z,1.66
2017-12-03T01:55:11.730Z,1.89
2017-12-03T01:57:39.799Z,1.92
2017-12-03T02:00:07.886Z,2.09
2017-12-03T02:02:35.962Z,2.00
2017-12-03T02:05:04.026Z,2.22
2017-12-03T02:07:32.093Z,2.14
2017-12-03T02:10:00.161Z,2.43
2017-12-03T02:12:28.392Z,1.83
2017-12-03T02:14:56.490Z,1.36
2017-12-03T02:17:24.551Z,1.92
2017-12-03T02:19:52.618Z,2.06
2017-12-03T02:22:20.690Z,1.84
2017-12-03T02:24:48.795Z,2.18
2017-12-03T02:27:16.862Z,2.25
2017-12-03T02:29:44.927Z,2.04
2017-12-03T02:32:12.987Z,1.90
2017-12-03T02:34:41.236Z,2.03
2017-12-03T02:37:09.315Z,2.06
2017-12-03T02:39:37.385Z,2.27
2017-12-03T02:42:05.447Z,2.14
2017-12-03T02:44:33.515Z,2.04
2017-12-03T02:47:01.573Z,2.41
2017-12-03T02:49:29.678Z,2.62
2017-12-03T02:51:57.738Z,2.37
2017-12-03T02:54:25.807Z,1.81
2017-12-03T02:56:53.863Z,2.19
2017-12-03T02:59:21.918Z,1.69
2017-12-03T03:01:50.005Z,1.94
2017-12-03T03:04:18.063Z,2.35
2017-12-03T03:06:46.118Z,2.27
2017-12-03T03:09:14.718Z,2.56
2017-12-03T03:11:42.781Z,2.98
2017-12-03T03:14:10.841Z,2.95
2017-12-03T03:16:38.896Z,3.00
2017-12-03T03:19:06.963Z,2.60
2017-12-03T03:21:35.106Z,2.79
2017-12-03T03:24:03.130Z,2.79
2017-12-03T03:26:31.202Z,2.76
2017-12-03T03:28:59.256Z,2.83
2017-12-03T03:31:27.311Z,2.80
2017-12-03T03:33:55.502Z,2.64
2017-12-03T03:36:23.559Z,2.58
2017-12-03T03:38:51.634Z,2.75
2017-12-03T03:41:19.734Z,2.53
2017-12-03T03:43:47.786Z,2.82
2017-12-03T03:46:16.059Z,2.74
2017-12-03T03:48:44.114Z,2.85
2017-12-03T03:51:12.180Z,2.64
2017-12-03T03:53:40.238Z,2.47
2017-12-03T03:56:08.294Z,2.17
2017-12-03T03:58:36.394Z,2.45
2017-12-03T04:01:04.494Z,1.82
2017-12-03T04:03:32.553Z,2.04
2017-12-03T04:06:00.610Z,2.33
2017-12-03T04:08:28.671Z,1.74
2017-12-03T04:10:56.732Z,1.64
2017-12-03T04:13:24.816Z,1.81
2017-12-03T04:15:52.877Z,1.82
2017-12-03T04:18:20.944Z,2.29
2017-12-03T04:20:49.001Z,1.77
2017-12-03T04:23:17.060Z,1.66
2017-12-03T04:25:45.142Z,1.73
2017-12-03T04:28:13.204Z,2.02
2017-12-03T04:30:41.319Z,1.89
2017-12-03T04:33:09.375Z,1.28
2017-12-03T04:35:37.431Z,1.27
2017-12-03T04:38:05.532Z,1.68
2017-12-03T04:40:33.590Z,1.69
2017-12-03T04:43:01.647Z,1.59
2017-12-03T04:45:29.711Z,1.84
2017-12-03T04:47:57.782Z,1.90
2017-12-03T04:50:25.874Z,2.26
2017-12-03T04:52:53.944Z,1.92
2017-12-03T04:55:22.003Z,2.01
2017-12-03T04:57:50.062Z,2.23
2017-12-03T05:00:18.414Z,2.15
2017-12-03T05:02:46.467Z,1.74
2017-12-03T05:05:14.527Z,1.81
2017-12-03T05:07:42.663Z,2.08
2017-12-03T05:10:10.722Z,2.11
2017-12-03T05:12:38.815Z,2.01
2017-12-03T05:15:06.876Z,1.79
2017-12-03T05:17:34.923Z,1.71
2017-12-03T05:20:02.990Z,1.97
2017-12-03T05:22:31.043Z,2.00
2017-12-03T05:24:59.143Z,1.87
2017-12-03T05:27:27.216Z,2.14
2017-12-03T05:29:55.307Z,2.02
2017-12-03T05:32:23.366Z,2.02
2017-12-03T05:34:51.422Z,2.48
2017-12-03T05:37:19.515Z,1.83
2017-12-03T05:39:47.591Z,1.96
2017-12-03T05:42:15.650Z,2.13
2017-12-03T05:44:43.717Z,1.94
2017-12-03T05:47:11.804Z,2.35
2017-12-03T05:49:39.894Z,2.32
2017-12-03T05:52:07.990Z,2.08
2017-12-03T05:54:36.050Z,1.85
2017-12-03T05:57:04.134Z,2.16
2017-12-03T05:59:32.198Z,1.86
2017-12-03T06:02:00.286Z,2.05
2017-12-03T06:04:28.348Z,2.20
2017-12-03T06:06:56.413Z,2.08
2017-12-03T06:09:24.470Z,2.45
2017-12-03T06:11:52.538Z,2.16
2017-12-03T06:14:20.635Z,2.19
2017-12-03T06:16:48.703Z,2.37
2017-12-03T06:19:16.772Z,2.44
2017-12-03T06:21:44.835Z,2.36
2017-12-03T06:24:12.896Z,2.04
2017-12-03T06:26:41.010Z,2.05
2017-12-03T06:29:09.071Z,2.11
2017-12-03T06:31:37.139Z,2.31
2017-12-03T06:34:05.199Z,2.08
2017-12-03T06:36:33.264Z,2.58
2017-12-03T06:39:01.359Z,2.23
2017-12-03T06:41:29.438Z,2.49
2017-12-03T06:43:57.502Z,2.31
2017-12-03T06:46:25.571Z,2.46
2017-12-03T06:48:53.631Z,2.98
2017-12-03T06:51:21.722Z,2.95
2017-12-03T06:53:49.824Z,2.88
2017-12-03T06:56:17.874Z,2.51
2017-12-03T06:58:45.958Z,2.77
2017-12-03T07:01:14.016Z,2.84
2017-12-03T07:03:42.116Z,2.56
2017-12-03T07:06:10.183Z,2.09
2017-12-03T07:08:38.247Z,2.34
2017-12-03T07:11:06.318Z,2.18
2017-12-03T07:13:34.391Z,2.89
2017-12-03T07:16:02.474Z,2.71
2017-12-03T07:18:30.538Z,2.17
2017-12-03T07:20:58.604Z,2.56
2017-12-03T07:23:26.678Z,2.09
2017-12-03T07:25:54.739Z,2.07
2017-12-03T07:28:22.847Z,2.50
2017-12-03T07:30:50.913Z,2.04
2017-12-03T07:33:19.883Z,2.42
2017-12-03T07:35:47.947Z,2.54
2017-12-03T07:38:16.010Z,2.45
2017-12-03T07:40:44.098Z,2.29
2017-12-03T07:43:12.171Z,2.36
2017-12-03T07:45:40.250Z,2.75
2017-12-03T07:48:08.310Z,2.45
2017-12-03T07:50:36.382Z,2.48
2017-12-03T07:53:04.493Z,2.41
2017-12-03T07:55:32.556Z,3.05
2017-12-03T07:58:00.627Z,2.31
2017-12-03T08:00:28.700Z,2.93
2017-12-03T08:02:56.755Z,2.95
2017-12-03T08:05:24.871Z,3.26
2017-12-03T08:07:52.922Z,3.19
2017-12-03T08:10:20.991Z,3.11
2017-12-03T08:12:49.065Z,3.13
2017-12-03T08:15:17.134Z,3.12
2017-12-03T08:17:45.232Z,3.05
2017-12-03T08:20:13.304Z,3.36
2017-12-03T08:22:41.370Z,3.56
2017-12-03T08:25:09.581Z,3.40
2017-12-03T08:27:37.867Z,3.60
2017-12-03T08:30:06.018Z,3.10
2017-12-03T08:32:34.075Z,3.38
2017-12-03T08:35:02.125Z,2.96
2017-12-03T08:37:30.184Z,3.21
2017-12-03T08:39:58.245Z,2.95
2017-12-03T08:42:26.364Z,3.13
2017-12-03T08:44:54.430Z,3.52
2017-12-03T08:47:22.792Z,3.30
2017-12-03T08:49:50.856Z,2.94
2017-12-03T08:52:18.918Z,2.96
2017-12-03T08:54:47.004Z,3.36
2017-12-03T08:57:15.081Z,2.81
2017-12-03T08:59:43.148Z,3.13
2017-12-03T09:02:11.212Z,3.42
2017-12-03T09:04:39.281Z,3.17
2017-12-03T09:07:07.387Z,4.00
2017-12-03T09:09:35.440Z,3.30
2017-12-03T09:12:03.500Z,3.67
2017-12-03T09:14:31.567Z,3.41
2017-12-03T09:16:59.641Z,3.42
2017-12-03T09:19:27.730Z,2.91
2017-12-03T09:21:55.798Z,3.26
2017-12-03T09:24:23.867Z,3.43
2017-12-03T09:26:51.935Z,2.92
2017-12-03T09:29:20.008Z,3.89
2017-12-03T09:31:48.216Z,2.82
2017-12-03T09:34:16.277Z,3.05
2017-12-03T09:36:44.340Z,2.97
2017-12-03T09:39:12.399Z,3.00
2017-12-03T09:41:40.467Z,3.16
2017-12-03T09:44:08.554Z,3.66
2017-12-03T09:46:36.619Z,3.42
2017-12-03T09:49:04.684Z,3.19
2017-12-03T09:51:32.742Z,3.23
2017-12-03T09:54:00.803Z,4.06
2017-12-03T09:56:28.894Z,4.13
2017-12-03T09:58:56.952Z,3.50
2017-12-03T10:01:25.146Z,3.16
2017-12-03T10:03:53.208Z,2.83
2017-12-03T10:06:21.274Z,2.89
2017-12-03T10:08:49.333Z,3.28
2017-12-03T10:11:17.396Z,2.94
2017-12-03T10:13:45.486Z,2.70
2017-12-03T10:16:13.547Z,3.24
2017-12-03T10:18:41.610Z,3.13
2017-12-03T10:21:09.668Z,2.73
2017-12-03T10:23:37.738Z,2.82
2017-12-03T10:26:05.827Z,2.46
2017-12-03T10:28:33.891Z,2.77
2017-12-03T10:31:01.951Z,2.96
2017-12-03T10:33:30.021Z,2.55
2017-12-03T10:35:58.087Z,2.62
2017-12-03T10:38:26.179Z,2.90
2017-12-03T10:40:54.245Z,3.01
2017-12-03T10:43:22.306Z,2.59
2017-12-03T10:45:50.385Z,2.57
2017-12-03T10:48:18.474Z,2.58
2017-12-03T10:50:46.555Z,2.34
2017-12-03T10:53:14.623Z,2.99
2017-12-03T10:55:42.678Z,3.20
2017-12-03T10:58:10.752Z,3.07
2017-12-03T11:00:38.808Z,3.07
2017-12-03T11:03:06.895Z,2.66
2017-12-03T11:05:34.961Z,3.01
2017-12-03T11:08:03.011Z,2.60
2017-12-03T11:10:31.074Z,2.66
2017-12-03T11:12:59.134Z,2.86
2017-12-03T11:15:27.215Z,2.53
2017-12-03T11:17:55.274Z,2.80
2017-12-03T11:20:23.340Z,3.30
2017-12-03T11:22:51.412Z,2.73
2017-12-03T11:25:19.470Z,3.11
2017-12-03T11:27:47.568Z,2.78
2017-12-03T11:30:15.622Z,2.99
2017-12-03T11:32:43.688Z,3.10
2017-12-03T11:35:11.748Z,2.76
2017-12-03T11:37:39.806Z,3.04
2017-12-03T11:40:07.866Z,3.05
2017-12-03T11:42:35.931Z,2.85
2017-12-03T11:45:04.110Z,3.06
2017-12-03T11:47:32.172Z,3.06
2017-12-03T11:50:00.234Z,3.01
2017-12-03T11:52:28.284Z,3.42
2017-12-03T11:54:56.343Z,3.14
2017-12-03T11:57:24.430Z,3.26
2017-12-03T11:59:52.494Z,3.35
2017-12-03T12:02:20.542Z,3.50
2017-12-03T12:04:48.598Z,3.59
2017-12-03T12:07:16.660Z,3.90
2017-12-03T12:09:44.709Z,3.80
2017-12-03T12:12:12.772Z,3.67
2017-12-03T12:14:40.897Z,3.62
2017-12-03T12:17:08.952Z,3.47
2017-12-03T12:19:36.999Z,3.55
2017-12-03T12:22:05.087Z,3.85
2017-12-03T12:24:33.145Z,3.15
2017-12-03T12:27:01.331Z,3.56
2017-12-03T12:29:29.393Z,3.36
2017-12-03T12:31:57.462Z,3.13
2017-12-03T12:34:25.510Z,3.31
2017-12-03T12:36:53.562Z,3.30
2017-12-03T12:39:21.647Z,3.32
2017-12-03T12:41:49.702Z,3.58
2017-12-03T12:44:17.891Z,3.69
2017-12-03T12:46:46.227Z,3.50
2017-12-03T12:49:14.560Z,3.22
2017-12-03T12:51:42.898Z,3.03
2017-12-03T12:54:11.233Z,3.36
2017-12-03T12:56:39.615Z,3.17
2017-12-03T12:59:07.943Z,3.38
2017-12-03T13:01:36.271Z,3.52
2017-12-03T13:04:04.609Z,3.21
2017-12-03T13:06:32.947Z,3.19
2017-12-03T13:09:01.300Z,3.41
2017-12-03T13:11:29.640Z,3.41
2017-12-03T13:13:57.974Z,3.54
2017-12-03T13:16:26.311Z,3.59
2017-12-03T13:18:54.643Z,3.50
2017-12-03T13:21:23.016Z,3.99
2017-12-03T13:23:51.352Z,3.43
2017-12-03T13:26:19.683Z,3.73
2017-12-03T13:28:48.026Z,3.98
2017-12-03T13:31:16.380Z,4.00
2017-12-03T13:33:44.720Z,3.52
2017-12-03T13:36:13.083Z,3.98
2017-12-03T13:38:41.428Z,3.91
2017-12-03T13:41:09.763Z,3.84
2017-12-03T13:43:38.107Z,4.28
2017-12-03T13:46:06.445Z,4.58
2017-12-03T13:48:34.806Z,4.32
2017-12-03T13:51:03.147Z,4.14
2017-12-03T13:53:31.477Z,4.31
2017-12-03T13:55:59.811Z,4.11
2017-12-03T13:58:28.147Z,3.95
2017-12-03T14:00:56.516Z,4.16
2017-12-03T14:03:24.859Z,3.81
2017-12-03T14:05:53.196Z,3.42
2017-12-03T14:08:21.566Z,3.52
2017-12-03T14:10:49.962Z,3.62
2017-12-03T14:13:18.332Z,3.40
2017-12-03T14:15:46.696Z,3.89
2017-12-03T14:18:15.027Z,3.25
2017-12-03T14:20:43.358Z,3.64
2017-12-03T14:23:11.698Z,3.45
2017-12-03T14:25:40.039Z,3.83
2017-12-03T14:28:08.413Z,4.19
2017-12-03T14:30:36.758Z,4.20
2017-12-03T14:33:05.096Z,3.67
2017-12-03T14:35:33.575Z,3.79
2017-12-03T14:38:01.913Z,3.63
2017-12-03T14:40:30.251Z,3.95
2017-12-03T14:42:58.580Z,4.61
2017-12-03T14:45:26.932Z,4.37
2017-12-03T14:47:55.297Z,4.61
2017-12-03T14:50:23.637Z,4.48
2017-12-03T14:52:51.974Z,4.63
2017-12-03T14:55:20.315Z,4.60
2017-12-03T14:57:48.659Z,4.47
2017-12-03T15:00:17.051Z,4.30
2017-12-03T15:02:45.424Z,4.29
2017-12-03T15:05:13.798Z,4.08
2017-12-03T15:07:42.126Z,3.99
2017-12-03T15:10:10.466Z,4.44
2017-12-03T15:12:38.835Z,4.11
2017-12-03T15:15:07.171Z,3.89
2017-12-03T15:17:35.508Z,4.38
2017-12-03T15:20:03.843Z,4.19
2017-12-03T15:22:33.006Z,3.94
2017-12-03T15:25:01.379Z,4.11
2017-12-03T15:27:30.578Z,3.65
2017-12-03T15:29:58.915Z,3.41
2017-12-03T15:32:27.254Z,4.00
2017-12-03T15:34:55.582Z,3.09
2017-12-03T15:37:23.947Z,3.74
2017-12-03T15:39:52.283Z,3.51
2017-12-03T15:42:20.619Z,3.31
2017-12-03T15:44:48.955Z,3.66
2017-12-03T15:47:17.288Z,3.57
2017-12-03T15:49:45.874Z,3.60
2017-12-03T15:52:14.224Z,3.51
2017-12-03T15:54:42.557Z,3.18
2017-12-03T15:57:10.895Z,3.58
2017-12-03T15:59:39.226Z,3.93
2017-12-03T16:02:07.600Z,3.42
2017-12-03T16:04:35.937Z,3.48
2017-12-03T16:07:04.266Z,3.76
2017-12-03T16:09:32.607Z,3.59
2017-12-03T16:12:01.006Z,3.66
2017-12-03T16:14:29.378Z,3.45
2017-12-03T16:16:57.719Z,3.61
2017-12-03T16:19:26.055Z,3.77
2017-12-03T16:21:54.407Z,4.05
2017-12-03T16:24:22.750Z,3.85
2017-12-03T16:26:51.136Z,3.98
2017-12-03T16:29:19.467Z,3.92
2017-12-03T16:31:47.802Z,3.97
2017-12-03T16:34:16.138Z,3.78
2017-12-03T16:36:44.477Z,3.97
2017-12-03T16:39:12.827Z,3.83
2017-12-03T16:41:41.164Z,3.54
2017-12-03T16:44:09.570Z,3.89
2017-12-03T16:46:37.899Z,3.77
2017-12-03T16:49:06.245Z,4.27
2017-12-03T16:51:34.714Z,3.88
2017-12-03T16:54:03.906Z,4.03
2017-12-03T16:56:32.370Z,3.90
2017-12-03T16:59:00.731Z,3.64
2017-12-03T17:01:29.058Z,3.76
2017-12-03T17:03:57.395Z,3.70
2017-12-03T17:06:25.738Z,3.75
2017-12-03T17:08:54.259Z,3.80
2017-12-03T17:11:22.594Z,3.49
2017-12-03T17:13:50.934Z,3.67
2017-12-03T17:16:19.259Z,3.99
2017-12-03T17:18:47.594Z,4.09
2017-12-03T17:21:15.966Z,4.21
2017-12-03T17:23:44.306Z,4.10
2017-12-03T17:26:12.654Z,4.19
2017-12-03T17:28:40.982Z,3.93
2017-12-03T17:31:09.326Z,3.91
2017-12-03T17:33:37.798Z,4.15
2017-12-03T17:36:06.142Z,4.11
2017-12-03T17:38:34.476Z,3.75
2017-12-03T17:41:02.808Z,3.96
2017-12-03T17:43:31.158Z,3.75
2017-12-03T17:45:59.532Z,3.84
2017-12-03T17:48:27.892Z,4.34
2017-12-03T17:50:56.226Z,3.90
2017-12-03T17:53:24.571Z,4.43
2017-12-03T17:55:52.919Z,3.85
2017-12-03T17:58:21.290Z,4.16
2017-12-03T18:00:49.631Z,4.15
2017-12-03T18:03:20.431Z,4.36
2017-12-03T18:05:48.815Z,4.44
2017-12-03T18:08:17.159Z,4.45
2017-12-03T18:10:45.494Z,4.24
2017-12-03T18:13:13.842Z,4.55
2017-12-03T18:15:42.182Z,4.16
2017-12-03T18:18:10.553Z,4.24
2017-12-03T18:20:38.888Z,4.61
2017-12-03T18:23:07.219Z,4.54
2017-12-03T18:25:35.559Z,4.84
2017-12-03T18:28:03.891Z,4.98
2017-12-03T18:30:32.254Z,4.49
2017-12-03T18:33:00.600Z,4.44
2017-12-03T18:35:28.938Z,4.21
2017-12-03T18:37:57.293Z,4.59
2017-12-03T18:40:25.639Z,4.80
2017-12-03T18:42:54.018Z,4.68
2017-12-03T18:45:22.368Z,4.37
2017-12-03T18:47:50.714Z,4.46
2017-12-03T18:50:19.064Z,4.37
2017-12-03T18:52:47.405Z,4.45
2017-12-03T18:55:15.795Z,4.31
2017-12-03T18:57:44.186Z,4.34
2017-12-03T19:00:12.642Z,4.72
2017-12-03T19:02:40.979Z,4.91
2017-12-03T19:05:09.323Z,4.80
2017-12-03T19:07:37.713Z,4.99
2017-12-03T19:10:06.057Z,4.75
2017-12-03T19:12:34.412Z,4.50
2017-12-03T19:15:02.765Z,4.76
2017-12-03T19:17:31.113Z,4.42
2017-12-03T19:19:59.459Z,4.77
2017-12-03T19:22:27.798Z,4.59
2017-12-03T19:24:56.176Z,5.01
2017-12-03T19:27:24.511Z,4.98
2017-12-03T19:29:52.871Z,5.01
2017-12-03T19:32:21.220Z,4.66
2017-12-03T19:34:49.578Z,5.01
2017-12-03T19:37:17.955Z,5.29
2017-12-03T19:39:46.299Z,4.84
2017-12-03T19:42:14.637Z,5.22
2017-12-03T19:44:42.974Z,5.25
2017-12-03T19:47:11.308Z,5.04
2017-12-03T19:49:39.675Z,5.05
2017-12-03T19:52:08.010Z,5.40
2017-12-03T19:54:36.347Z,4.88
2017-12-03T19:57:04.687Z,4.83
2017-12-03T19:59:33.022Z,5.33
2017-12-03T20:02:01.396Z,4.81
2017-12-03T20:04:29.728Z,4.75
2017-12-03T20:06:58.066Z,4.67
2017-12-03T20:09:26.398Z,5.02
2017-12-03T20:11:54.750Z,4.94
2017-12-03T20:14:23.125Z,5.01
2017-12-03T20:16:51.455Z,4.99
2017-12-03T20:19:19.793Z,5.16
2017-12-03T20:21:48.131Z,5.03
2017-12-03T20:24:16.463Z,4.86
2017-12-03T20:26:44.806Z,5.07
2017-12-03T20:29:13.142Z,4.57
2017-12-03T20:31:41.518Z,4.59
2017-12-03T20:34:09.866Z,4.85
2017-12-03T20:36:38.215Z,4.74
2017-12-03T20:39:06.577Z,4.51
2017-12-03T20:41:34.960Z,4.43
2017-12-03T20:44:03.299Z,4.95
2017-12-03T20:46:31.642Z,4.97
2017-12-03T20:48:59.990Z,4.62
2017-12-03T20:51:28.342Z,4.81
2017-12-03T20:53:56.719Z,4.49
2017-12-03T20:56:25.071Z,4.46
2017-12-03T20:58:53.427Z,4.88
2017-12-03T21:01:21.767Z,4.76
2017-12-03T21:03:50.106Z,5.10
2017-12-03T21:06:18.478Z,5.23
2017-12-03T21:08:46.824Z,5.24
2017-12-03T21:11:15.158Z,5.41
2017-12-03T21:13:43.510Z,4.96
2017-12-03T21:16:11.862Z,5.23
2017-12-03T21:18:40.198Z,5.08
2017-12-03T21:21:08.547Z,5.19
2017-12-03T21:23:36.921Z,4.96
2017-12-03T21:26:05.272Z,5.12
2017-12-03T21:28:33.675Z,5.31
2017-12-03T21:31:02.045Z,5.21
2017-12-03T21:33:30.382Z,5.07
2017-12-03T21:35:58.725Z,5.50
2017-12-03T21:38:27.060Z,4.85
2017-12-03T21:40:55.392Z,5.11
2017-12-03T21:43:23.772Z,5.62
2017-12-03T21:45:52.118Z,5.25
2017-12-03T21:48:20.467Z,5.10
2017-12-03T21:50:48.797Z,4.83
2017-12-03T21:53:17.138Z,4.98
2017-12-03T21:55:45.579Z,5.49
2017-12-03T21:58:13.939Z,4.94
2017-12-03T22:00:42.280Z,5.22
2017-12-03T22:03:10.611Z,5.44
2017-12-03T22:05:38.957Z,5.55
2017-12-03T22:08:07.430Z,5.82
2017-12-03T22:10:35.783Z,5.58
2017-12-03T22:13:04.134Z,5.65
2017-12-03T22:15:32.483Z,4.84
2017-12-03T22:18:00.829Z,5.27
2017-12-03T22:20:29.210Z,5.52
2017-12-03T22:22:57.582Z,5.16
2017-12-03T22:25:25.931Z,5.33
2017-12-03T22:27:54.319Z,5.49
2017-12-03T22:30:22.654Z,5.56
2017-12-03T22:32:50.990Z,5.62
2017-12-03T22:35:19.335Z,5.31
2017-12-03T22:37:47.670Z,5.21
2017-12-03T22:40:16.089Z,5.09
2017-12-03T22:42:44.418Z,4.97
2017-12-03T22:45:12.788Z,5.12
2017-12-03T22:47:41.160Z,5.22
2017-12-03T22:50:09.486Z,5.68
2017-12-03T22:52:37.831Z,5.96
2017-12-03T22:55:06.180Z,6.15
2017-12-03T22:57:34.540Z,5.35
2017-12-03T23:00:02.879Z,5.55
2017-12-03T23:02:31.220Z,5.62
2017-12-03T23:04:59.555Z,5.12
2017-12-03T23:07:27.911Z,5.08
2017-12-03T23:09:56.279Z,5.29
2017-12-03T23:12:24.629Z,5.27
2017-12-03T23:14:52.966Z,5.80
2017-12-03T23:17:21.333Z,5.33
2017-12-03T23:19:49.667Z,4.90
2017-12-03T23:22:18.049Z,5.43
2017-12-03T23:24:46.390Z,4.87
2017-12-03T23:27:14.743Z,4.80
2017-12-03T23:29:43.091Z,4.99
2017-12-03T23:32:11.574Z,5.28
2017-12-03T23:34:39.959Z,5.60
2017-12-03T23:37:08.317Z,5.53
2017-12-03T23:39:36.666Z,5.74
2017-12-03T23:42:05.018Z,5.60
2017-12-03T23:44:33.367Z,5.61
2017-12-03T23:47:01.752Z,5.35
2017-12-03T23:49:30.099Z,5.33
2017-12-03T23:51:58.440Z,5.64
2017-12-03T23:54:26.791Z,5.43
2017-12-03T23:56:55.142Z,5.66
2017-12-03T23:59:23.517Z,5.52
